Time;durP1;ratioP1;P1;durP2;ratioP2;P2;SDS_P1;SDS_P2;PMS_P1;PMS_P2;Temp;Humidity;BMP_temperature;BMP_pressure;BME280_temperature;BME280_humidity;BME280_pressure;Samples;Min_cycle;Max_cycle;Signal;HPM_P1;HPM_P2
2021/11/12 00:16:27;;;;;;;27.22;18.27;;;;;;;5.29;63.32;95063.99;835605;70;32818;-83
2021/11/12 01:01:15;;;;;;;19.77;14.73;;;;;;;5.64;63.41;95092.31;828739;71;30498;-84
2021/11/12 01:16:18;;;;;;;21.93;15.50;;;;;;;5.58;63.54;95086.77;833708;71;32779;-86
2021/11/12 01:31:09;;;;;;;22.87;14.73;;;;;;;5.52;63.85;95084.61;847640;70;29681;-84
2021/11/12 01:46:31;;;;;;;19.60;14.25;;;;;;;5.28;64.03;95037.20;827798;71;30797;-85
2021/11/12 02:01:15;;;;;;;18.98;13.43;;;;;;;5.17;64.20;95018.08;827063;71;33179;-86
2021/11/12 02:31:08;;;;;;;16.80;11.73;;;;;;;5.22;64.24;95046.73;827844;71;29801;-85
2021/11/12 02:47:03;;;;;;;;;;;;;;;;;;;;;
2021/11/12 03:16:16;;;;;;;14.87;11.75;;;;;;;4.92;65.16;95022.92;827311;71;31699;-86
2021/11/12 06:01:18;;;;;;;23.67;17.35;;;;;;;7.47;61.28;95004.72;820558;70;29604;-78
2021/11/12 06:16:37;;;;;;;24.98;17.15;;;;;;;8.88;57.38;95005.75;823422;71;32875;-77
2021/11/12 06:31:08;;;;;;;25.65;17.62;;;;;;;9.38;55.38;94998.81;821387;71;29414;-79
2021/11/12 07:01:11;;;;;;;31.70;23.50;;;;;;;10.97;51.46;94993.16;829098;71;29743;-79
2021/11/12 07:16:16;;;;;;;30.15;22.20;;;;;;;11.59;49.89;94982.22;827068;71;33565;-80
2021/11/12 07:31:09;;;;;;;30.25;20.95;;;;;;;12.27;48.21;94970.34;827521;71;30651;-78
2021/11/12 08:01:10;;;;;;;33.00;24.47;;;;;;;14.10;44.47;94947.48;822004;71;30380;-78
2021/11/12 08:16:29;;;;;;;37.53;28.62;;;;;;;15.20;42.51;94937.66;827093;71;32783;-78
2021/11/12 08:31:24;;;;;;;34.65;27.37;;;;;;;15.24;39.91;94936.52;827586;71;30548;-77
2021/11/12 08:46:29;;;;;;;31.95;26.45;;;;;;;15.82;40.08;94933.34;821829;71;30122;-77
2021/11/12 09:16:12;;;;;;;30.10;24.15;;;;;;;16.03;38.96;94911.78;828092;71;29714;-76
2021/11/12 09:31:09;;;;;;;32.83;25.77;;;;;;;16.57;37.48;94886.27;828844;71;30455;-78
2021/11/12 09:46:15;;;;;;;30.80;26.75;;;;;;;16.77;37.47;94863.61;834344;71;32695;-77
2021/11/12 10:01:17;;;;;;;28.60;24.10;;;;;;;16.78;36.96;94845.83;825681;71;33386;-78
2021/11/12 10:16:17;;;;;;;27.52;22.90;;;;;;;16.74;36.86;94823.15;822453;71;30244;-78
2021/11/12 10:31:17;;;;;;;28.80;24.67;;;;;;;17.56;35.90;94809.62;827157;71;33325;-75
2021/11/12 10:46:10;;;;;;;31.52;25.27;;;;;;;17.86;35.63;94779.58;823902;71;30348;-78
2021/11/12 11:01:15;;;;;;;32.95;26.75;;;;;;;18.58;35.25;94770.21;813175;70;33198;-78
2021/11/12 11:16:18;;;;;;;31.35;25.75;;;;;;;18.91;34.79;94760.05;821044;71;30361;-78
2021/11/12 11:31:12;;;;;;;28.70;25.23;;;;;;;17.91;35.01;94745.64;818792;70;30346;-80
2021/11/12 11:46:19;;;;;;;32.00;25.20;;;;;;;17.09;36.35;94736.06;833092;70;33131;-78
2021/11/12 12:01:21;;;;;;;35.92;27.25;;;;;;;17.08;36.84;94722.05;832204;70;32555;-76
2021/11/12 12:16:25;;;;;;;32.45;27.95;;;;;;;17.15;36.57;94723.64;832975;70;32691;-77
2021/11/12 12:31:43;;;;;;;34.92;28.95;;;;;;;17.08;36.85;94716.73;820616;70;32717;-78
2021/11/12 15:16:13;;;;;;;50.00;33.42;;;;;;;11.97;51.96;94709.34;816045;71;29723;-77
2021/11/12 15:31:20;;;;;;;48.35;31.97;;;;;;;11.69;53.31;94724.26;822389;70;32089;-74
2021/11/12 15:46:12;;;;;;;52.55;33.20;;;;;;;11.30;55.00;94747.73;817169;71;30279;-76
2021/11/12 16:31:14;;;;;;;53.83;35.95;;;;;;;10.52;57.25;94781.27;821777;71;33570;-80
2021/11/12 17:01:39;;;;;;;56.70;37.83;;;;;;;10.15;58.65;94793.94;822371;71;30432;-81
2021/11/12 17:16:26;;;;;;;55.43;40.00;;;;;;;9.96;58.29;94792.55;823318;71;29916;-79
2021/11/12 17:46:28;;;;;;;65.95;43.85;;;;;;;9.61;58.73;94793.59;813444;71;32901;-80
2021/11/12 21:46:23;;;;;;;59.65;36.70;;;;;;;7.15;62.69;94834.16;828174;71;29720;-78
2021/11/12 22:01:09;;;;;;;66.10;44.67;;;;;;;7.08;61.94;94837.55;827420;71;30080;-77
2021/11/12 22:16:17;;;;;;;64.30;41.23;;;;;;;7.05;61.78;94832.05;833437;71;33182;-79
2021/11/12 22:31:09;;;;;;;51.53;35.40;;;;;;;6.97;62.04;94830.70;827758;71;30507;-79
2021/11/12 22:32:13;;;;;;;50.63;34.88;;;;;;;6.90;62.09;94834.09;808061;73;26398;-79
2021/11/12 22:46:08;;;;;;;44.70;30.92;;;;;;;6.95;61.52;94838.01;827568;71;29695;-79
2021/11/12 23:01:14;;;;;;;47.35;31.87;;;;;;;6.78;61.90;94825.17;827721;71;29647;-79
2021/11/12 23:16:10;;;;;;;41.25;29.37;;;;;;;6.69;62.23;94835.81;827737;71;30274;-77
2021/11/12 23:31:14;;;;;;;39.65;28.77;;;;;;;6.59;62.29;94828.75;826919;71;33441;-79
2021/11/12 23:46:09;;;;;;;43.17;28.60;;;;;;;6.46;62.41;94833.11;833871;71;30304;-81
